sensor_id;sensor_type;location;lat;lon;timestamp;P1;durP1;ratioP1;P2;durP2;ratioP2
46889;SDS011;32625;51.080;16.970;2022-07-29T00:01:07;6.45;;;3.40;;
46889;SDS011;32625;51.080;16.970;2022-07-29T00:03:45;8.07;;;3.33;;
46889;SDS011;32625;51.080;16.970;2022-07-29T00:06:12;5.03;;;3.35;;
46889;SDS011;32625;51.080;16.970;2022-07-29T00:08:40;6.65;;;3.38;;
46889;SDS011;32625;51.080;16.970;2022-07-29T00:11:08;8.20;;;3.17;;
46889;SDS011;32625;51.080;16.970;2022-07-29T00:13:35;9.13;;;3.17;;
46889;SDS011;32625;51.080;16.970;2022-07-29T00:16:02;7.15;;;3.22;;
46889;SDS011;32625;51.080;16.970;2022-07-29T00:18:31;9.50;;;3.70;;
46889;SDS011;32625;51.080;16.970;2022-07-29T00:20:58;7.95;;;3.65;;
46889;SDS011;32625;51.080;16.970;2022-07-29T00:23:26;9.50;;;3.38;;
46889;SDS011;32625;51.080;16.970;2022-07-29T00:25:55;5.10;;;3.05;;
46889;SDS011;32625;51.080;16.970;2022-07-29T00:28:22;8.27;;;3.35;;
46889;SDS011;32625;51.080;16.970;2022-07-29T00:30:49;9.55;;;3.38;;
46889;SDS011;32625;51.080;16.970;2022-07-29T00:33:16;6.80;;;3.28;;
46889;SDS011;32625;51.080;16.970;2022-07-29T00:35:44;5.80;;;3.20;;
46889;SDS011;32625;51.080;16.970;2022-07-29T00:38:14;9.90;;;3.70;;
46889;SDS011;32625;51.080;16.970;2022-07-29T00:40:46;7.07;;;2.88;;
46889;SDS011;32625;51.080;16.970;2022-07-29T00:43:14;7.05;;;2.90;;
46889;SDS011;32625;51.080;16.970;2022-07-29T00:45:41;6.95;;;3.20;;
46889;SDS011;32625;51.080;16.970;2022-07-29T00:48:09;9.20;;;3.33;;
46889;SDS011;32625;51.080;16.970;2022-07-29T00:50:37;9.45;;;3.45;;
46889;SDS011;32625;51.080;16.970;2022-07-29T00:53:08;8.63;;;3.38;;
46889;SDS011;32625;51.080;16.970;2022-07-29T00:55:38;7.15;;;3.50;;
46889;SDS011;32625;51.080;16.970;2022-07-29T00:58:05;9.07;;;3.30;;
46889;SDS011;32625;51.080;16.970;2022-07-29T01:00:33;6.80;;;3.08;;
46889;SDS011;32625;51.080;16.970;2022-07-29T01:03:01;7.15;;;3.30;;
46889;SDS011;32625;51.080;16.970;2022-07-29T01:05:29;8.85;;;3.30;;
46889;SDS011;32625;51.080;16.970;2022-07-29T01:08:17;8.32;;;3.10;;
46889;SDS011;32625;51.080;16.970;2022-07-29T01:10:46;7.80;;;3.28;;
46889;SDS011;32625;51.080;16.970;2022-07-29T01:13:14;4.90;;;2.92;;
46889;SDS011;32625;51.080;16.970;2022-07-29T01:15:47;14.57;;;3.35;;
46889;SDS011;32625;51.080;16.970;2022-07-29T01:18:24;10.88;;;3.28;;
46889;SDS011;32625;51.080;16.970;2022-07-29T01:26:31;10.43;;;3.40;;
46889;SDS011;32625;51.080;16.970;2022-07-29T01:29:17;7.70;;;3.65;;
46889;SDS011;32625;51.080;16.970;2022-07-29T01:32:11;7.57;;;3.15;;
46889;SDS011;32625;51.080;16.970;2022-07-29T01:34:58;7.40;;;2.95;;
46889;SDS011;32625;51.080;16.970;2022-07-29T01:37:44;9.20;;;3.53;;
46889;SDS011;32625;51.080;16.970;2022-07-29T01:40:19;8.15;;;3.22;;
46889;SDS011;32625;51.080;16.970;2022-07-29T01:43:11;7.82;;;3.15;;
46889;SDS011;32625;51.080;16.970;2022-07-29T01:45:43;7.85;;;3.28;;
46889;SDS011;32625;51.080;16.970;2022-07-29T01:50:56;6.70;;;3.60;;
46889;SDS011;32625;51.080;16.970;2022-07-29T01:53:30;8.02;;;3.72;;
46889;SDS011;32625;51.080;16.970;2022-07-29T01:56:03;6.88;;;3.60;;
46889;SDS011;32625;51.080;16.970;2022-07-29T01:58:33;9.82;;;3.20;;
46889;SDS011;32625;51.080;16.970;2022-07-29T02:01:01;9.57;;;3.35;;
46889;SDS011;32625;51.080;16.970;2022-07-29T02:03:30;8.65;;;3.42;;
46889;SDS011;32625;51.080;16.970;2022-07-29T02:06:01;4.93;;;3.10;;
46889;SDS011;32625;51.080;16.970;2022-07-29T02:08:30;7.93;;;3.17;;
46889;SDS011;32625;51.080;16.970;2022-07-29T02:11:00;7.25;;;3.33;;
46889;SDS011;32625;51.080;16.970;2022-07-29T02:13:30;21.90;;;3.60;;
46889;SDS011;32625;51.080;16.970;2022-07-29T02:16:00;5.50;;;3.22;;
46889;SDS011;32625;51.080;16.970;2022-07-29T02:18:31;6.95;;;3.30;;
46889;SDS011;32625;51.080;16.970;2022-07-29T02:21:00;6.13;;;3.22;;
46889;SDS011;32625;51.080;16.970;2022-07-29T02:23:28;6.85;;;3.40;;
46889;SDS011;32625;51.080;16.970;2022-07-29T02:26:17;7.03;;;2.95;;
46889;SDS011;32625;51.080;16.970;2022-07-29T02:28:50;8.20;;;3.28;;
46889;SDS011;32625;51.080;16.970;2022-07-29T02:31:21;5.63;;;3.22;;
46889;SDS011;32625;51.080;16.970;2022-07-29T02:33:52;7.88;;;3.80;;
46889;SDS011;32625;51.080;16.970;2022-07-29T02:36:21;6.43;;;3.40;;
46889;SDS011;32625;51.080;16.970;2022-07-29T02:38:50;11.45;;;3.80;;
46889;SDS011;32625;51.080;16.970;2022-07-29T02:41:27;8.45;;;3.90;;
46889;SDS011;32625;51.080;16.970;2022-07-29T02:43:58;7.20;;;3.50;;
46889;SDS011;32625;51.080;16.970;2022-07-29T02:51:44;9.48;;;3.20;;
46889;SDS011;32625;51.080;16.970;2022-07-29T02:55:02;7.78;;;3.60;;
46889;SDS011;32625;51.080;16.970;2022-07-29T02:57:22;8.90;;;3.65;;
46889;SDS011;32625;51.080;16.970;2022-07-29T03:00:21;8.43;;;3.88;;
46889;SDS011;32625;51.080;16.970;2022-07-29T03:02:53;7.22;;;3.92;;
46889;SDS011;32625;51.080;16.970;2022-07-29T03:05:26;7.13;;;3.38;;
46889;SDS011;32625;51.080;16.970;2022-07-29T03:07:55;5.13;;;3.35;;
46889;SDS011;32625;51.080;16.970;2022-07-29T03:10:26;7.72;;;3.58;;
46889;SDS011;32625;51.080;16.970;2022-07-29T03:12:55;6.95;;;3.58;;
46889;SDS011;32625;51.080;16.970;2022-07-29T03:15:24;7.60;;;3.20;;
46889;SDS011;32625;51.080;16.970;2022-07-29T03:17:52;5.82;;;3.67;;
46889;SDS011;32625;51.080;16.970;2022-07-29T03:20:22;8.73;;;3.25;;
46889;SDS011;32625;51.080;16.970;2022-07-29T03:22:50;8.77;;;3.40;;
46889;SDS011;32625;51.080;16.970;2022-07-29T03:25:18;6.30;;;3.35;;
46889;SDS011;32625;51.080;16.970;2022-07-29T03:27:46;6.85;;;3.30;;
46889;SDS011;32625;51.080;16.970;2022-07-29T03:30:15;13.07;;;3.85;;
46889;SDS011;32625;51.080;16.970;2022-07-29T03:32:47;6.75;;;3.15;;
46889;SDS011;32625;51.080;16.970;2022-07-29T03:35:18;8.10;;;3.65;;
46889;SDS011;32625;51.080;16.970;2022-07-29T03:37:46;7.50;;;3.58;;
46889;SDS011;32625;51.080;16.970;2022-07-29T03:40:18;7.15;;;3.78;;
46889;SDS011;32625;51.080;16.970;2022-07-29T03:42:49;7.75;;;3.65;;
46889;SDS011;32625;51.080;16.970;2022-07-29T03:45:17;9.88;;;3.75;;
46889;SDS011;32625;51.080;16.970;2022-07-29T03:47:47;6.47;;;3.28;;
46889;SDS011;32625;51.080;16.970;2022-07-29T03:50:23;6.30;;;3.53;;
46889;SDS011;32625;51.080;16.970;2022-07-29T03:52:51;8.13;;;3.63;;
46889;SDS011;32625;51.080;16.970;2022-07-29T03:55:19;10.55;;;3.50;;
46889;SDS011;32625;51.080;16.970;2022-07-29T03:57:46;10.85;;;3.85;;
46889;SDS011;32625;51.080;16.970;2022-07-29T04:00:16;8.80;;;3.05;;
46889;SDS011;32625;51.080;16.970;2022-07-29T04:02:43;12.10;;;3.92;;
46889;SDS011;32625;51.080;16.970;2022-07-29T04:05:16;5.38;;;3.35;;
46889;SDS011;32625;51.080;16.970;2022-07-29T04:07:44;5.93;;;3.45;;
46889;SDS011;32625;51.080;16.970;2022-07-29T04:10:12;8.07;;;3.70;;
46889;SDS011;32625;51.080;16.970;2022-07-29T04:12:42;8.82;;;4.00;;
46889;SDS011;32625;51.080;16.970;2022-07-29T04:15:10;6.22;;;3.30;;
46889;SDS011;32625;51.080;16.970;2022-07-29T04:17:37;7.10;;;3.30;;
46889;SDS011;32625;51.080;16.970;2022-07-29T04:20:05;12.93;;;3.90;;
46889;SDS011;32625;51.080;16.970;2022-07-29T04:22:33;6.80;;;3.67;;
46889;SDS011;32625;51.080;16.970;2022-07-29T04:25:00;8.68;;;3.88;;
46889;SDS011;32625;51.080;16.970;2022-07-29T04:27:29;7.40;;;3.35;;
46889;SDS011;32625;51.080;16.970;2022-07-29T04:29:57;6.93;;;3.50;;
46889;SDS011;32625;51.080;16.970;2022-07-29T04:32:24;7.18;;;3.67;;
46889;SDS011;32625;51.080;16.970;2022-07-29T04:34:52;6.80;;;3.65;;
46889;SDS011;32625;51.080;16.970;2022-07-29T04:37:19;9.23;;;3.88;;
46889;SDS011;32625;51.080;16.970;2022-07-29T04:39:47;6.45;;;3.63;;
46889;SDS011;32625;51.080;16.970;2022-07-29T04:42:14;8.88;;;3.45;;
46889;SDS011;32625;51.080;16.970;2022-07-29T04:44:42;6.55;;;3.70;;
46889;SDS011;32625;51.080;16.970;2022-07-29T04:47:10;9.02;;;3.90;;
46889;SDS011;32625;51.080;16.970;2022-07-29T04:49:38;10.77;;;3.67;;
46889;SDS011;32625;51.080;16.970;2022-07-29T04:52:06;9.82;;;3.97;;
46889;SDS011;32625;51.080;16.970;2022-07-29T04:54:33;5.38;;;3.40;;
46889;SDS011;32625;51.080;16.970;2022-07-29T04:57:00;6.03;;;3.80;;
46889;SDS011;32625;51.080;16.970;2022-07-29T04:59:28;9.88;;;3.67;;
46889;SDS011;32625;51.080;16.970;2022-07-29T05:01:55;12.30;;;3.55;;
46889;SDS011;32625;51.080;16.970;2022-07-29T05:04:22;5.93;;;3.35;;
46889;SDS011;32625;51.080;16.970;2022-07-29T05:06:50;6.90;;;3.30;;
46889;SDS011;32625;51.080;16.970;2022-07-29T05:09:17;7.68;;;3.30;;
46889;SDS011;32625;51.080;16.970;2022-07-29T05:11:44;4.75;;;3.42;;
46889;SDS011;32625;51.080;16.970;2022-07-29T05:14:11;11.48;;;3.28;;
46889;SDS011;32625;51.080;16.970;2022-07-29T05:16:40;7.53;;;3.58;;
46889;SDS011;32625;51.080;16.970;2022-07-29T05:19:07;5.50;;;2.85;;
46889;SDS011;32625;51.080;16.970;2022-07-29T05:21:39;6.78;;;3.03;;
46889;SDS011;32625;51.080;16.970;2022-07-29T05:24:07;6.40;;;3.35;;
46889;SDS011;32625;51.080;16.970;2022-07-29T05:26:34;7.35;;;3.38;;
46889;SDS011;32625;51.080;16.970;2022-07-29T05:29:02;9.75;;;3.33;;
46889;SDS011;32625;51.080;16.970;2022-07-29T05:31:29;8.70;;;3.42;;
46889;SDS011;32625;51.080;16.970;2022-07-29T05:33:57;7.28;;;3.42;;
46889;SDS011;32625;51.080;16.970;2022-07-29T05:36:24;6.28;;;2.95;;
46889;SDS011;32625;51.080;16.970;2022-07-29T05:38:52;8.85;;;2.90;;
46889;SDS011;32625;51.080;16.970;2022-07-29T05:41:19;5.45;;;2.97;;
46889;SDS011;32625;51.080;16.970;2022-07-29T05:43:48;5.07;;;2.80;;
46889;SDS011;32625;51.080;16.970;2022-07-29T05:46:16;5.70;;;3.22;;
46889;SDS011;32625;51.080;16.970;2022-07-29T05:48:43;7.60;;;3.05;;
46889;SDS011;32625;51.080;16.970;2022-07-29T05:51:11;11.15;;;3.10;;
46889;SDS011;32625;51.080;16.970;2022-07-29T05:53:38;7.28;;;3.05;;
46889;SDS011;32625;51.080;16.970;2022-07-29T05:56:06;8.40;;;3.38;;
46889;SDS011;32625;51.080;16.970;2022-07-29T05:58:33;8.77;;;3.35;;
46889;SDS011;32625;51.080;16.970;2022-07-29T06:01:01;5.43;;;3.25;;
46889;SDS011;32625;51.080;16.970;2022-07-29T06:03:29;12.70;;;3.38;;
46889;SDS011;32625;51.080;16.970;2022-07-29T06:05:56;9.57;;;3.17;;
46889;SDS011;32625;51.080;16.970;2022-07-29T06:08:24;5.43;;;2.97;;
46889;SDS011;32625;51.080;16.970;2022-07-29T06:10:51;8.65;;;3.65;;
46889;SDS011;32625;51.080;16.970;2022-07-29T06:13:19;5.60;;;3.30;;
46889;SDS011;32625;51.080;16.970;2022-07-29T06:15:46;5.53;;;3.05;;
46889;SDS011;32625;51.080;16.970;2022-07-29T06:18:13;8.00;;;3.40;;
46889;SDS011;32625;51.080;16.970;2022-07-29T06:20:41;8.93;;;3.53;;
46889;SDS011;32625;51.080;16.970;2022-07-29T06:23:08;7.28;;;3.15;;
46889;SDS011;32625;51.080;16.970;2022-07-29T06:25:36;7.38;;;3.45;;
46889;SDS011;32625;51.080;16.970;2022-07-29T06:28:04;7.97;;;4.43;;
46889;SDS011;32625;51.080;16.970;2022-07-29T06:30:31;8.50;;;3.13;;
46889;SDS011;32625;51.080;16.970;2022-07-29T06:32:59;9.55;;;3.72;;
46889;SDS011;32625;51.080;16.970;2022-07-29T06:35:27;10.57;;;3.70;;
46889;SDS011;32625;51.080;16.970;2022-07-29T06:38:07;11.25;;;3.22;;
46889;SDS011;32625;51.080;16.970;2022-07-29T06:40:55;6.45;;;3.10;;
46889;SDS011;32625;51.080;16.970;2022-07-29T06:43:36;10.43;;;3.10;;
46889;SDS011;32625;51.080;16.970;2022-07-29T06:46:16;6.45;;;2.90;;
46889;SDS011;32625;51.080;16.970;2022-07-29T06:48:44;4.97;;;2.63;;
46889;SDS011;32625;51.080;16.970;2022-07-29T06:51:14;4.65;;;2.72;;
46889;SDS011;32625;51.080;16.970;2022-07-29T06:53:49;7.28;;;3.10;;
46889;SDS011;32625;51.080;16.970;2022-07-29T06:56:32;6.28;;;2.72;;
46889;SDS011;32625;51.080;16.970;2022-07-29T06:59:05;8.30;;;3.33;;
46889;SDS011;32625;51.080;16.970;2022-07-29T07:01:32;7.72;;;3.00;;
46889;SDS011;32625;51.080;16.970;2022-07-29T07:04:00;8.45;;;3.33;;
46889;SDS011;32625;51.080;16.970;2022-07-29T07:06:27;10.25;;;2.63;;
46889;SDS011;32625;51.080;16.970;2022-07-29T07:08:55;6.10;;;3.08;;
46889;SDS011;32625;51.080;16.970;2022-07-29T07:11:22;10.93;;;3.13;;
46889;SDS011;32625;51.080;16.970;2022-07-29T07:13:49;4.68;;;2.80;;
46889;SDS011;32625;51.080;16.970;2022-07-29T07:16:17;6.93;;;2.40;;
46889;SDS011;32625;51.080;16.970;2022-07-29T07:18:44;9.20;;;2.70;;
46889;SDS011;32625;51.080;16.970;2022-07-29T07:21:12;5.38;;;3.03;;
46889;SDS011;32625;51.080;16.970;2022-07-29T07:23:45;8.63;;;2.75;;
46889;SDS011;32625;51.080;16.970;2022-07-29T07:26:13;6.38;;;2.40;;
46889;SDS011;32625;51.080;16.970;2022-07-29T07:28:41;6.70;;;2.50;;
46889;SDS011;32625;51.080;16.970;2022-07-29T07:31:08;4.82;;;2.33;;
46889;SDS011;32625;51.080;16.970;2022-07-29T07:33:36;10.30;;;2.40;;
46889;SDS011;32625;51.080;16.970;2022-07-29T07:36:03;6.25;;;2.42;;
46889;SDS011;32625;51.080;16.970;2022-07-29T07:38:30;7.05;;;2.70;;
46889;SDS011;32625;51.080;16.970;2022-07-29T07:40:58;6.95;;;2.35;;
46889;SDS011;32625;51.080;16.970;2022-07-29T07:43:25;5.18;;;2.42;;
46889;SDS011;32625;51.080;16.970;2022-07-29T07:45:52;5.25;;;2.65;;
46889;SDS011;32625;51.080;16.970;2022-07-29T07:48:20;4.50;;;2.45;;
46889;SDS011;32625;51.080;16.970;2022-07-29T07:50:47;6.80;;;2.45;;
46889;SDS011;32625;51.080;16.970;2022-07-29T07:53:16;5.18;;;2.35;;
46889;SDS011;32625;51.080;16.970;2022-07-29T07:55:43;8.48;;;3.17;;
46889;SDS011;32625;51.080;16.970;2022-07-29T07:58:31;5.13;;;2.90;;
46889;SDS011;32625;51.080;16.970;2022-07-29T08:00:58;5.72;;;2.33;;
46889;SDS011;32625;51.080;16.970;2022-07-29T08:03:26;6.55;;;2.42;;
46889;SDS011;32625;51.080;16.970;2022-07-29T08:05:53;8.00;;;2.58;;
46889;SDS011;32625;51.080;16.970;2022-07-29T08:08:20;4.53;;;2.42;;
46889;SDS011;32625;51.080;16.970;2022-07-29T08:10:48;9.73;;;2.85;;
46889;SDS011;32625;51.080;16.970;2022-07-29T08:13:19;9.60;;;2.63;;
46889;SDS011;32625;51.080;16.970;2022-07-29T08:15:47;6.75;;;2.63;;
46889;SDS011;32625;51.080;16.970;2022-07-29T08:18:24;6.05;;;2.75;;
46889;SDS011;32625;51.080;16.970;2022-07-29T08:20:53;3.95;;;2.38;;
46889;SDS011;32625;51.080;16.970;2022-07-29T08:23:20;7.07;;;2.97;;
46889;SDS011;32625;51.080;16.970;2022-07-29T08:25:50;5.82;;;2.50;;
46889;SDS011;32625;51.080;16.970;2022-07-29T08:28:20;4.85;;;2.60;;
46889;SDS011;32625;51.080;16.970;2022-07-29T08:30:51;9.55;;;2.88;;
46889;SDS011;32625;51.080;16.970;2022-07-29T08:33:19;5.78;;;2.35;;
46889;SDS011;32625;51.080;16.970;2022-07-29T08:35:46;8.68;;;3.00;;
46889;SDS011;32625;51.080;16.970;2022-07-29T08:38:13;5.95;;;2.40;;
46889;SDS011;32625;51.080;16.970;2022-07-29T08:40:41;6.22;;;2.72;;
46889;SDS011;32625;51.080;16.970;2022-07-29T08:43:08;8.38;;;2.33;;
46889;SDS011;32625;51.080;16.970;2022-07-29T08:45:46;4.93;;;2.58;;
46889;SDS011;32625;51.080;16.970;2022-07-29T08:48:18;12.77;;;3.15;;
46889;SDS011;32625;51.080;16.970;2022-07-29T08:50:51;5.10;;;2.42;;
46889;SDS011;32625;51.080;16.970;2022-07-29T08:53:22;7.93;;;2.78;;
46889;SDS011;32625;51.080;16.970;2022-07-29T08:55:53;7.47;;;2.50;;
46889;SDS011;32625;51.080;16.970;2022-07-29T08:58:21;5.78;;;2.90;;
46889;SDS011;32625;51.080;16.970;2022-07-29T09:00:52;7.07;;;2.70;;
46889;SDS011;32625;51.080;16.970;2022-07-29T09:03:24;4.20;;;2.60;;
46889;SDS011;32625;51.080;16.970;2022-07-29T09:05:53;10.48;;;2.45;;
46889;SDS011;32625;51.080;16.970;2022-07-29T09:08:20;6.05;;;2.50;;
46889;SDS011;32625;51.080;16.970;2022-07-29T09:10:49;6.00;;;2.55;;
46889;SDS011;32625;51.080;16.970;2022-07-29T09:13:17;10.32;;;2.72;;
46889;SDS011;32625;51.080;16.970;2022-07-29T09:15:45;6.40;;;2.65;;
46889;SDS011;32625;51.080;16.970;2022-07-29T09:18:31;6.10;;;2.33;;
46889;SDS011;32625;51.080;16.970;2022-07-29T09:21:05;8.55;;;2.53;;
46889;SDS011;32625;51.080;16.970;2022-07-29T09:24:02;4.88;;;2.22;;
46889;SDS011;32625;51.080;16.970;2022-07-29T09:26:36;6.00;;;2.45;;
46889;SDS011;32625;51.080;16.970;2022-07-29T09:29:07;4.03;;;2.45;;
46889;SDS011;32625;51.080;16.970;2022-07-29T09:31:40;10.57;;;2.50;;
46889;SDS011;32625;51.080;16.970;2022-07-29T09:34:23;7.10;;;2.85;;
46889;SDS011;32625;51.080;16.970;2022-07-29T09:36:51;5.53;;;2.67;;
46889;SDS011;32625;51.080;16.970;2022-07-29T09:39:35;6.57;;;2.80;;
46889;SDS011;32625;51.080;16.970;2022-07-29T09:42:11;6.15;;;2.83;;
46889;SDS011;32625;51.080;16.970;2022-07-29T09:44:43;9.15;;;2.40;;
46889;SDS011;32625;51.080;16.970;2022-07-29T09:47:15;5.77;;;2.43;;
46889;SDS011;32625;51.080;16.970;2022-07-29T09:49:51;5.50;;;2.95;;
46889;SDS011;32625;51.080;16.970;2022-07-29T09:52:26;5.15;;;2.47;;
46889;SDS011;32625;51.080;16.970;2022-07-29T09:55:08;7.03;;;2.60;;
46889;SDS011;32625;51.080;16.970;2022-07-29T09:57:44;4.82;;;2.50;;
46889;SDS011;32625;51.080;16.970;2022-07-29T10:00:13;5.25;;;2.40;;
46889;SDS011;32625;51.080;16.970;2022-07-29T10:02:45;6.00;;;2.60;;
46889;SDS011;32625;51.080;16.970;2022-07-29T10:07:51;4.25;;;2.42;;
46889;SDS011;32625;51.080;16.970;2022-07-29T10:10:27;6.05;;;2.85;;
46889;SDS011;32625;51.080;16.970;2022-07-29T10:13:01;5.28;;;2.42;;
46889;SDS011;32625;51.080;16.970;2022-07-29T10:15:38;5.00;;;2.78;;
46889;SDS011;32625;51.080;16.970;2022-07-29T10:18:08;8.68;;;3.10;;
46889;SDS011;32625;51.080;16.970;2022-07-29T10:20:36;7.00;;;2.60;;
46889;SDS011;32625;51.080;16.970;2022-07-29T10:23:04;8.18;;;2.70;;
46889;SDS011;32625;51.080;16.970;2022-07-29T10:25:32;9.95;;;2.83;;
46889;SDS011;32625;51.080;16.970;2022-07-29T10:27:59;5.65;;;2.70;;
46889;SDS011;32625;51.080;16.970;2022-07-29T10:30:27;5.63;;;2.30;;
46889;SDS011;32625;51.080;16.970;2022-07-29T10:35:51;7.68;;;2.78;;
46889;SDS011;32625;51.080;16.970;2022-07-29T10:38:51;6.75;;;2.90;;
46889;SDS011;32625;51.080;16.970;2022-07-29T10:44:41;5.22;;;2.70;;
46889;SDS011;32625;51.080;16.970;2022-07-29T10:47:22;6.53;;;2.70;;
46889;SDS011;32625;51.080;16.970;2022-07-29T10:50:00;5.38;;;2.60;;
46889;SDS011;32625;51.080;16.970;2022-07-29T10:55:38;4.20;;;2.58;;
46889;SDS011;32625;51.080;16.970;2022-07-29T10:58:15;8.07;;;2.72;;
46889;SDS011;32625;51.080;16.970;2022-07-29T11:00:51;5.30;;;3.20;;
46889;SDS011;32625;51.080;16.970;2022-07-29T11:06:15;5.70;;;2.97;;
46889;SDS011;32625;51.080;16.970;2022-07-29T11:11:45;10.40;;;3.50;;
46889;SDS011;32625;51.080;16.970;2022-07-29T11:14:17;7.50;;;3.50;;
46889;SDS011;32625;51.080;16.970;2022-07-29T11:16:59;10.65;;;3.40;;
46889;SDS011;32625;51.080;16.970;2022-07-29T11:19:32;7.60;;;4.20;;
46889;SDS011;32625;51.080;16.970;2022-07-29T11:22:01;8.48;;;3.17;;
46889;SDS011;32625;51.080;16.970;2022-07-29T11:24:29;5.63;;;2.70;;
46889;SDS011;32625;51.080;16.970;2022-07-29T11:27:08;8.20;;;2.63;;
46889;SDS011;32625;51.080;16.970;2022-07-29T11:29:40;8.07;;;3.40;;
46889;SDS011;32625;51.080;16.970;2022-07-29T11:32:17;9.25;;;3.40;;
46889;SDS011;32625;51.080;16.970;2022-07-29T11:34:49;7.05;;;3.00;;
46889;SDS011;32625;51.080;16.970;2022-07-29T11:37:46;9.32;;;3.55;;
46889;SDS011;32625;51.080;16.970;2022-07-29T11:40:36;5.57;;;3.38;;
46889;SDS011;32625;51.080;16.970;2022-07-29T11:43:07;10.38;;;3.50;;
46889;SDS011;32625;51.080;16.970;2022-07-29T11:45:45;5.95;;;2.85;;
46889;SDS011;32625;51.080;16.970;2022-07-29T11:48:17;5.63;;;2.50;;
46889;SDS011;32625;51.080;16.970;2022-07-29T11:50:58;4.15;;;2.60;;
46889;SDS011;32625;51.080;16.970;2022-07-29T11:53:26;7.90;;;2.60;;
46889;SDS011;32625;51.080;16.970;2022-07-29T11:55:58;9.07;;;3.20;;
46889;SDS011;32625;51.080;16.970;2022-07-29T11:58:26;5.40;;;2.78;;
46889;SDS011;32625;51.080;16.970;2022-07-29T12:00:54;6.00;;;3.35;;
46889;SDS011;32625;51.080;16.970;2022-07-29T12:03:24;9.52;;;3.00;;
46889;SDS011;32625;51.080;16.970;2022-07-29T12:06:02;5.05;;;2.50;;
46889;SDS011;32625;51.080;16.970;2022-07-29T12:08:42;5.30;;;3.20;;
46889;SDS011;32625;51.080;16.970;2022-07-29T12:11:19;7.05;;;3.03;;
46889;SDS011;32625;51.080;16.970;2022-07-29T12:13:49;4.45;;;2.88;;
46889;SDS011;32625;51.080;16.970;2022-07-29T12:16:18;9.98;;;3.10;;
46889;SDS011;32625;51.080;16.970;2022-07-29T12:18:55;11.65;;;3.38;;
46889;SDS011;32625;51.080;16.970;2022-07-29T12:21:24;7.20;;;2.72;;
46889;SDS011;32625;51.080;16.970;2022-07-29T12:23:55;10.43;;;3.00;;
46889;SDS011;32625;51.080;16.970;2022-07-29T12:26:34;6.22;;;2.92;;
46889;SDS011;32625;51.080;16.970;2022-07-29T12:29:01;8.63;;;3.10;;
46889;SDS011;32625;51.080;16.970;2022-07-29T12:31:36;10.18;;;3.28;;
46889;SDS011;32625;51.080;16.970;2022-07-29T12:34:13;8.07;;;3.28;;
46889;SDS011;32625;51.080;16.970;2022-07-29T12:36:42;6.22;;;2.92;;
46889;SDS011;32625;51.080;16.970;2022-07-29T12:39:10;4.95;;;3.35;;
46889;SDS011;32625;51.080;16.970;2022-07-29T12:41:38;10.95;;;3.55;;
46889;SDS011;32625;51.080;16.970;2022-07-29T12:44:06;6.80;;;2.95;;
46889;SDS011;32625;51.080;16.970;2022-07-29T12:46:33;7.28;;;3.13;;
46889;SDS011;32625;51.080;16.970;2022-07-29T12:49:01;9.50;;;3.20;;
46889;SDS011;32625;51.080;16.970;2022-07-29T12:51:36;7.68;;;2.88;;
46889;SDS011;32625;51.080;16.970;2022-07-29T12:54:06;4.53;;;2.92;;
46889;SDS011;32625;51.080;16.970;2022-07-29T12:56:34;6.15;;;3.28;;
46889;SDS011;32625;51.080;16.970;2022-07-29T12:59:28;5.97;;;2.97;;
46889;SDS011;32625;51.080;16.970;2022-07-29T13:01:55;8.45;;;2.92;;
46889;SDS011;32625;51.080;16.970;2022-07-29T13:04:32;6.20;;;3.55;;
46889;SDS011;32625;51.080;16.970;2022-07-29T13:07:03;5.60;;;2.95;;
46889;SDS011;32625;51.080;16.970;2022-07-29T13:09:40;6.90;;;3.13;;
46889;SDS011;32625;51.080;16.970;2022-07-29T13:14:38;7.65;;;2.60;;
46889;SDS011;32625;51.080;16.970;2022-07-29T13:17:14;3.70;;;2.65;;
46889;SDS011;32625;51.080;16.970;2022-07-29T13:22:13;5.78;;;2.70;;
46889;SDS011;32625;51.080;16.970;2022-07-29T13:24:46;10.27;;;3.45;;
46889;SDS011;32625;51.080;16.970;2022-07-29T13:27:22;8.40;;;3.28;;
46889;SDS011;32625;51.080;16.970;2022-07-29T13:29:53;5.78;;;2.70;;
46889;SDS011;32625;51.080;16.970;2022-07-29T13:32:24;8.05;;;2.80;;
46889;SDS011;32625;51.080;16.970;2022-07-29T13:34:59;10.30;;;2.90;;
46889;SDS011;32625;51.080;16.970;2022-07-29T13:37:31;7.75;;;2.92;;
46889;SDS011;32625;51.080;16.970;2022-07-29T13:40:01;5.57;;;3.00;;
46889;SDS011;32625;51.080;16.970;2022-07-29T13:42:30;10.10;;;3.30;;
46889;SDS011;32625;51.080;16.970;2022-07-29T13:44:58;5.70;;;2.70;;
46889;SDS011;32625;51.080;16.970;2022-07-29T13:47:26;15.60;;;3.72;;
46889;SDS011;32625;51.080;16.970;2022-07-29T13:50:03;7.32;;;3.53;;
46889;SDS011;32625;51.080;16.970;2022-07-29T13:52:32;4.47;;;2.90;;
46889;SDS011;32625;51.080;16.970;2022-07-29T13:55:00;4.85;;;3.00;;
46889;SDS011;32625;51.080;16.970;2022-07-29T13:57:28;7.88;;;2.90;;
46889;SDS011;32625;51.080;16.970;2022-07-29T13:59:56;5.40;;;2.83;;
46889;SDS011;32625;51.080;16.970;2022-07-29T14:02:24;8.18;;;3.10;;
46889;SDS011;32625;51.080;16.970;2022-07-29T14:04:54;7.68;;;3.33;;
46889;SDS011;32625;51.080;16.970;2022-07-29T14:07:22;6.78;;;3.13;;
46889;SDS011;32625;51.080;16.970;2022-07-29T14:09:50;8.80;;;3.22;;
46889;SDS011;32625;51.080;16.970;2022-07-29T14:12:17;4.80;;;3.20;;
46889;SDS011;32625;51.080;16.970;2022-07-29T14:14:45;9.73;;;3.30;;
46889;SDS011;32625;51.080;16.970;2022-07-29T14:17:13;9.75;;;3.47;;
46889;SDS011;32625;51.080;16.970;2022-07-29T14:19:41;4.25;;;2.60;;
46889;SDS011;32625;51.080;16.970;2022-07-29T14:22:08;5.47;;;3.20;;
46889;SDS011;32625;51.080;16.970;2022-07-29T14:24:37;6.88;;;3.03;;
46889;SDS011;32625;51.080;16.970;2022-07-29T14:27:05;5.25;;;2.88;;
46889;SDS011;32625;51.080;16.970;2022-07-29T14:29:33;4.15;;;3.00;;
46889;SDS011;32625;51.080;16.970;2022-07-29T14:32:07;6.03;;;2.78;;
46889;SDS011;32625;51.080;16.970;2022-07-29T14:34:37;10.30;;;3.03;;
46889;SDS011;32625;51.080;16.970;2022-07-29T14:37:05;5.75;;;2.72;;
46889;SDS011;32625;51.080;16.970;2022-07-29T14:39:33;9.43;;;3.40;;
46889;SDS011;32625;51.080;16.970;2022-07-29T14:42:08;4.88;;;2.95;;
46889;SDS011;32625;51.080;16.970;2022-07-29T14:44:38;7.28;;;3.38;;
46889;SDS011;32625;51.080;16.970;2022-07-29T14:47:06;6.90;;;2.95;;
46889;SDS011;32625;51.080;16.970;2022-07-29T14:49:34;7.88;;;3.20;;
46889;SDS011;32625;51.080;16.970;2022-07-29T14:52:02;7.25;;;3.20;;
46889;SDS011;32625;51.080;16.970;2022-07-29T14:54:29;6.22;;;2.92;;
46889;SDS011;32625;51.080;16.970;2022-07-29T14:56:57;6.72;;;3.03;;
46889;SDS011;32625;51.080;16.970;2022-07-29T14:59:24;9.65;;;3.05;;
46889;SDS011;32625;51.080;16.970;2022-07-29T15:01:52;6.30;;;3.13;;
46889;SDS011;32625;51.080;16.970;2022-07-29T15:04:20;9.93;;;3.17;;
46889;SDS011;32625;51.080;16.970;2022-07-29T15:06:48;8.18;;;3.60;;
46889;SDS011;32625;51.080;16.970;2022-07-29T15:09:15;4.95;;;3.30;;
46889;SDS011;32625;51.080;16.970;2022-07-29T15:11:42;9.48;;;3.17;;
46889;SDS011;32625;51.080;16.970;2022-07-29T15:14:10;5.60;;;3.45;;
46889;SDS011;32625;51.080;16.970;2022-07-29T15:16:38;6.55;;;3.08;;
46889;SDS011;32625;51.080;16.970;2022-07-29T15:19:13;9.43;;;3.47;;
46889;SDS011;32625;51.080;16.970;2022-07-29T15:21:40;4.22;;;3.15;;
46889;SDS011;32625;51.080;16.970;2022-07-29T15:24:17;6.18;;;3.33;;
46889;SDS011;32625;51.080;16.970;2022-07-29T15:26:46;7.13;;;3.45;;
46889;SDS011;32625;51.080;16.970;2022-07-29T15:29:14;7.93;;;3.17;;
46889;SDS011;32625;51.080;16.970;2022-07-29T15:31:42;4.68;;;3.45;;